createdAt,value
2022-09-26T00:01:22.499Z,6.22
2022-09-26T00:03:55.229Z,5.47
2022-09-26T00:06:22.943Z,4.20
2022-09-26T00:08:50.936Z,5.55
2022-09-26T00:11:40.247Z,5.30
2022-09-26T00:14:12.762Z,5.12
2022-09-26T00:16:40.114Z,5.87
2022-09-26T00:19:08.005Z,5.57
2022-09-26T00:21:35.624Z,4.72
2022-09-26T00:24:03.664Z,5.30
2022-09-26T00:26:33.317Z,4.90
2022-09-26T00:29:04.712Z,4.05
2022-09-26T00:31:35.454Z,5.95
2022-09-26T00:34:03.276Z,7.45
2022-09-26T00:36:38.170Z,6.00
2022-09-26T00:39:07.940Z,6.62
2022-09-26T00:41:35.738Z,5.70
2022-09-26T00:44:03.307Z,5.30
2022-09-26T00:46:42.027Z,4.93
2022-09-26T00:49:14.986Z,4.15
2022-09-26T00:51:46.495Z,5.07
2022-09-26T00:54:17.231Z,4.55
2022-09-26T00:56:47.099Z,5.32
2022-09-26T00:59:27.870Z,5.65
2022-09-26T01:01:58.740Z,6.50
2022-09-26T01:04:28.419Z,7.05
2022-09-26T01:07:01.829Z,5.12
2022-09-26T01:09:29.562Z,5.05
2022-09-26T01:11:57.223Z,6.37
2022-09-26T01:14:25.066Z,5.30
2022-09-26T01:16:52.419Z,3.95
2022-09-26T01:19:22.164Z,4.95
2022-09-26T01:22:03.842Z,5.97
2022-09-26T01:25:01.725Z,3.15
2022-09-26T01:27:34.884Z,3.12
2022-09-26T01:30:23.475Z,2.87
2022-09-26T01:33:03.361Z,4.30
2022-09-26T01:36:20.149Z,3.25
2022-09-26T01:39:12.708Z,2.85
2022-09-26T01:41:55.460Z,3.20
2022-09-26T01:44:50.381Z,3.08
2022-09-26T01:47:37.514Z,3.15
2022-09-26T01:50:11.899Z,2.58
2022-09-26T01:52:45.470Z,2.97
2022-09-26T01:55:21.202Z,2.40
2022-09-26T01:58:07.519Z,2.67
2022-09-26T02:00:37.619Z,3.03
2022-09-26T02:03:10.284Z,2.85
2022-09-26T02:05:44.857Z,2.85
2022-09-26T02:08:24.402Z,3.33
2022-09-26T02:11:02.120Z,2.80
2022-09-26T02:13:37.291Z,3.10
2022-09-26T02:16:11.824Z,2.92
2022-09-26T02:18:50.875Z,2.70
2022-09-26T02:21:22.990Z,3.37
2022-09-26T02:23:52.171Z,3.78
2022-09-26T02:26:19.607Z,2.95
2022-09-26T02:28:47.439Z,2.95
2022-09-26T02:31:21.461Z,3.05
2022-09-26T02:33:52.619Z,3.03
2022-09-26T02:36:21.198Z,2.67
2022-09-26T02:38:48.395Z,2.70
2022-09-26T02:41:44.477Z,3.33
2022-09-26T02:44:15.128Z,4.07
2022-09-26T02:46:51.465Z,2.72
2022-09-26T02:49:59.994Z,2.37
2022-09-26T02:52:50.737Z,3.92
2022-09-26T02:55:23.670Z,2.40
2022-09-26T02:57:56.547Z,2.53
2022-09-26T03:00:32.664Z,2.70
2022-09-26T03:03:14.506Z,2.53
2022-09-26T03:05:44.021Z,3.08
2022-09-26T03:08:28.262Z,2.97
2022-09-26T03:10:59.883Z,4.60
2022-09-26T03:13:28.088Z,3.12
2022-09-26T03:15:58.814Z,3.22
2022-09-26T03:18:32.725Z,2.95
2022-09-26T03:20:59.972Z,3.20
2022-09-26T03:23:28.665Z,3.70
2022-09-26T03:26:04.943Z,2.67
2022-09-26T03:28:37.481Z,3.00
2022-09-26T03:31:05.028Z,3.00
2022-09-26T03:33:32.287Z,3.65
2022-09-26T03:36:00.210Z,4.40
2022-09-26T03:38:27.983Z,4.03
2022-09-26T03:40:57.166Z,4.82
2022-09-26T03:43:24.757Z,6.25
2022-09-26T03:45:51.721Z,3.58
2022-09-26T03:48:18.685Z,3.70
2022-09-26T03:50:45.910Z,3.15
2022-09-26T03:53:13.473Z,3.37
2022-09-26T03:55:40.683Z,3.70
2022-09-26T03:58:07.564Z,3.55
2022-09-26T04:00:34.906Z,4.07
2022-09-26T04:03:05.899Z,3.20
2022-09-26T04:05:32.784Z,2.72
2022-09-26T04:08:01.266Z,3.47
2022-09-26T04:10:28.124Z,2.97
2022-09-26T04:12:55.374Z,3.53
2022-09-26T04:15:22.279Z,3.70
2022-09-26T04:17:49.148Z,2.92
2022-09-26T04:20:16.113Z,4.65
2022-09-26T04:22:43.120Z,3.10
2022-09-26T04:25:10.322Z,3.80
2022-09-26T04:27:38.120Z,4.28
2022-09-26T04:30:05.611Z,3.97
2022-09-26T04:32:32.549Z,3.55
2022-09-26T04:34:59.483Z,3.67
2022-09-26T04:37:26.423Z,3.25
2022-09-26T04:39:53.265Z,3.75
2022-09-26T04:42:20.188Z,2.95
2022-09-26T04:44:48.351Z,2.00
2022-09-26T04:47:15.388Z,2.58
2022-09-26T04:49:43.078Z,2.05
2022-09-26T04:52:10.016Z,2.95
2022-09-26T04:54:37.484Z,2.62
2022-09-26T04:57:04.772Z,2.20
2022-09-26T04:59:31.707Z,2.22
2022-09-26T05:01:58.694Z,2.58
2022-09-26T05:04:27.748Z,1.87
2022-09-26T05:06:57.905Z,1.87
2022-09-26T05:09:25.357Z,1.10
2022-09-26T05:11:52.475Z,1.50
2022-09-26T05:14:19.387Z,1.67
2022-09-26T05:16:47.312Z,2.12
2022-09-26T05:19:14.595Z,2.30
2022-09-26T05:21:43.205Z,2.25
2022-09-26T05:24:28.613Z,1.37
2022-09-26T05:26:55.959Z,2.40
2022-09-26T05:29:22.896Z,1.50
2022-09-26T05:31:50.675Z,1.67
2022-09-26T05:34:20.136Z,1.95
2022-09-26T05:36:47.816Z,2.00
2022-09-26T05:39:33.515Z,1.73
2022-09-26T05:42:00.762Z,1.52
2022-09-26T05:44:28.435Z,2.03
2022-09-26T05:46:57.538Z,1.33
2022-09-26T05:49:25.319Z,1.25
2022-09-26T05:51:53.846Z,1.00
2022-09-26T05:54:20.868Z,1.08
2022-09-26T05:56:48.386Z,1.23
2022-09-26T05:59:15.520Z,1.55
2022-09-26T06:01:42.713Z,1.00
2022-09-26T06:04:10.844Z,2.05
2022-09-26T06:06:37.819Z,1.83
2022-09-26T06:09:07.308Z,1.33
2022-09-26T06:11:34.512Z,1.30
2022-09-26T06:14:01.627Z,1.42
2022-09-26T06:16:29.457Z,1.20
2022-09-26T06:18:56.671Z,1.02
2022-09-26T06:21:24.221Z,1.30
2022-09-26T06:23:51.443Z,1.20
2022-09-26T06:26:23.777Z,1.37
2022-09-26T06:28:59.886Z,1.37
2022-09-26T06:31:28.293Z,1.30
2022-09-26T06:33:55.588Z,1.10
2022-09-26T06:36:25.597Z,1.30
2022-09-26T06:38:54.973Z,1.33
2022-09-26T06:41:21.974Z,1.67
2022-09-26T06:43:50.026Z,1.60
2022-09-26T06:46:17.656Z,1.23
2022-09-26T06:48:44.674Z,0.90
2022-09-26T06:51:14.371Z,1.48
2022-09-26T06:53:42.991Z,1.30
2022-09-26T06:56:09.886Z,2.17
2022-09-26T06:58:37.372Z,1.05
2022-09-26T07:01:06.628Z,1.20
2022-09-26T07:03:33.706Z,1.12
2022-09-26T07:06:00.643Z,1.65
2022-09-26T07:14:02.470Z,1.80
2022-09-26T07:16:30.088Z,1.60
2022-09-26T07:18:57.855Z,1.85
2022-09-26T07:21:24.814Z,1.87
2022-09-26T07:23:56.389Z,1.45
2022-09-26T07:26:23.384Z,1.52
2022-09-26T07:28:54.546Z,1.95
2022-09-26T07:31:23.685Z,1.50
2022-09-26T07:33:50.874Z,2.08
2022-09-26T07:36:18.658Z,1.52
2022-09-26T07:38:48.660Z,1.80
2022-09-26T07:41:15.800Z,1.92
2022-09-26T07:44:30.307Z,2.35
2022-09-26T07:46:48.963Z,1.80
2022-09-26T07:49:34.436Z,1.67
2022-09-26T07:52:01.593Z,1.87
2022-09-26T07:54:31.137Z,2.05
2022-09-26T07:56:58.283Z,1.83
2022-09-26T07:59:25.292Z,1.85
2022-09-26T08:01:55.010Z,2.42
2022-09-26T08:04:22.149Z,1.70
2022-09-26T08:06:50.349Z,1.58
2022-09-26T08:09:17.301Z,1.70
2022-09-26T08:11:45.176Z,1.37
2022-09-26T08:14:12.129Z,2.25
2022-09-26T08:16:42.240Z,1.35
2022-09-26T08:19:17.240Z,1.25
2022-09-26T08:21:45.240Z,1.25
2022-09-26T08:24:12.319Z,1.80
2022-09-26T08:26:44.064Z,1.37
2022-09-26T08:29:12.448Z,2.08
2022-09-26T08:31:39.986Z,2.22
2022-09-26T08:34:08.390Z,1.23
2022-09-26T08:36:38.293Z,1.48
2022-09-26T08:39:05.691Z,1.60
2022-09-26T08:41:52.833Z,1.48
2022-09-26T08:44:45.715Z,1.60
2022-09-26T08:47:43.849Z,1.40
2022-09-26T08:50:42.143Z,1.62
2022-09-26T08:53:33.345Z,2.33
2022-09-26T08:56:03.881Z,1.98
2022-09-26T08:58:44.526Z,1.48
2022-09-26T09:01:24.872Z,1.37
2022-09-26T09:03:55.826Z,1.75
2022-09-26T09:06:23.445Z,1.87
2022-09-26T09:08:58.569Z,2.15
2022-09-26T09:11:37.321Z,2.10
2022-09-26T09:14:10.027Z,1.52
2022-09-26T09:16:37.031Z,1.45
2022-09-26T09:19:13.136Z,1.40
2022-09-26T09:22:01.587Z,2.15
2022-09-26T09:24:44.008Z,1.00
2022-09-26T09:27:54.689Z,1.33
2022-09-26T09:30:52.216Z,1.50
2022-09-26T09:33:37.335Z,1.60
2022-09-26T09:36:47.993Z,1.30
2022-09-26T09:39:41.946Z,1.40
2022-09-26T09:42:28.189Z,1.80
2022-09-26T09:45:06.717Z,1.95
2022-09-26T09:47:38.376Z,1.95
2022-09-26T09:50:16.830Z,1.10
2022-09-26T09:53:11.892Z,1.70
2022-09-26T09:56:13.390Z,1.58
2022-09-26T09:59:19.021Z,1.37
2022-09-26T10:01:54.874Z,1.30
2022-09-26T10:04:39.359Z,1.33
2022-09-26T10:07:06.494Z,1.60
2022-09-26T10:09:40.685Z,3.62
2022-09-26T10:12:17.144Z,1.83
2022-09-26T10:14:52.869Z,1.77
2022-09-26T10:17:21.635Z,1.25
2022-09-26T10:19:48.951Z,1.73
2022-09-26T10:22:26.152Z,1.30
2022-09-26T10:25:08.686Z,1.73
2022-09-26T10:27:41.144Z,0.90
2022-09-26T10:30:26.192Z,1.05
2022-09-26T10:32:56.840Z,1.15
2022-09-26T10:35:25.404Z,1.58
2022-09-26T10:38:05.673Z,1.10
2022-09-26T10:40:48.025Z,1.42
2022-09-26T10:43:31.160Z,1.17
2022-09-26T10:46:07.148Z,0.98
2022-09-26T10:48:50.125Z,1.70
2022-09-26T10:51:29.697Z,1.20
2022-09-26T10:54:23.097Z,1.08
2022-09-26T10:56:57.639Z,1.52
2022-09-26T10:59:29.010Z,1.20
2022-09-26T11:01:59.189Z,1.10
2022-09-26T11:04:48.373Z,1.62
2022-09-26T11:07:29.009Z,0.95
2022-09-26T11:10:02.303Z,0.85
2022-09-26T11:12:31.681Z,0.85
2022-09-26T11:15:10.227Z,1.02
2022-09-26T11:17:51.859Z,1.30
2022-09-26T11:20:27.864Z,1.67
2022-09-26T11:23:13.797Z,1.15
2022-09-26T11:25:47.867Z,1.92
2022-09-26T11:28:23.883Z,1.80
2022-09-26T11:30:56.669Z,1.58
2022-09-26T11:33:24.734Z,1.67
2022-09-26T11:36:07.507Z,1.67
2022-09-26T11:38:55.605Z,1.70
2022-09-26T11:41:42.222Z,1.85
2022-09-26T11:44:30.483Z,1.92
2022-09-26T11:47:05.762Z,1.80
2022-09-26T11:49:38.693Z,2.00
2022-09-26T11:52:44.389Z,2.30
2022-09-26T11:55:40.589Z,1.73
2022-09-26T11:58:14.995Z,2.03
2022-09-26T12:00:55.957Z,1.70
2022-09-26T12:03:27.768Z,2.35
2022-09-26T12:06:02.840Z,2.15
2022-09-26T12:09:03.594Z,1.60
2022-09-26T12:11:37.007Z,2.25
2022-09-26T12:14:18.813Z,2.10
2022-09-26T12:17:05.600Z,1.75
2022-09-26T12:19:55.797Z,1.83
2022-09-26T12:22:38.024Z,2.03
2022-09-26T12:25:37.275Z,2.30
2022-09-26T12:28:57.793Z,1.67
2022-09-26T12:31:43.752Z,3.25
2022-09-26T12:34:28.753Z,2.50
2022-09-26T12:37:14.591Z,1.40
2022-09-26T12:40:10.769Z,1.98
2022-09-26T12:42:48.703Z,2.35
2022-09-26T12:45:18.411Z,2.12
2022-09-26T12:47:49.002Z,1.80
2022-09-26T12:50:25.437Z,1.52
2022-09-26T12:52:55.381Z,1.98
2022-09-26T12:55:51.827Z,2.33
2022-09-26T12:58:43.614Z,1.85
2022-09-26T13:01:13.575Z,1.80
2022-09-26T13:03:44.033Z,1.20
2022-09-26T13:06:38.408Z,0.80
2022-09-26T13:09:44.339Z,0.80
2022-09-26T13:12:20.633Z,1.00
2022-09-26T13:15:15.073Z,0.95
2022-09-26T13:17:47.897Z,0.75
2022-09-26T13:20:37.941Z,1.67
2022-09-26T13:23:38.675Z,0.75
2022-09-26T13:26:14.944Z,0.90
2022-09-26T13:29:16.292Z,1.33
2022-09-26T13:31:58.884Z,1.60
2022-09-26T13:34:38.917Z,1.50
2022-09-26T13:37:19.646Z,1.62
2022-09-26T13:39:49.694Z,1.92
2022-09-26T13:42:24.469Z,1.55
2022-09-26T13:45:36.414Z,1.87
2022-09-26T13:48:20.892Z,2.30
2022-09-26T13:50:55.646Z,2.08
2022-09-26T13:53:28.918Z,2.17
2022-09-26T13:56:34.146Z,2.60
2022-09-26T13:59:14.524Z,2.60
2022-09-26T14:02:16.085Z,3.28
2022-09-26T14:04:44.872Z,3.22
2022-09-26T14:07:49.774Z,3.65
2022-09-26T14:10:41.806Z,4.12
2022-09-26T14:13:36.922Z,2.90
2022-09-26T14:16:28.837Z,3.75
2022-09-26T14:18:58.491Z,3.62
2022-09-26T14:21:33.970Z,3.03
2022-09-26T14:24:38.189Z,3.17
2022-09-26T14:27:13.758Z,3.92
2022-09-26T14:29:44.706Z,2.62
2022-09-26T14:32:23.516Z,2.53
2022-09-26T14:34:54.023Z,2.90
2022-09-26T14:37:24.296Z,2.12
2022-09-26T14:40:30.157Z,2.80
2022-09-26T14:43:02.908Z,3.53
2022-09-26T14:46:00.312Z,3.00
2022-09-26T14:48:40.532Z,3.28
2022-09-26T14:51:20.734Z,4.45
2022-09-26T14:53:47.610Z,4.15
2022-09-26T14:56:17.959Z,3.58
2022-09-26T14:58:47.367Z,3.75
2022-09-26T15:01:18.931Z,3.62
2022-09-26T15:04:15.253Z,2.97
2022-09-26T15:06:46.447Z,3.08
2022-09-26T15:09:22.689Z,3.08
2022-09-26T15:12:04.009Z,3.90
2022-09-26T15:14:48.893Z,2.42
2022-09-26T15:17:39.004Z,2.95
2022-09-26T15:20:08.983Z,2.95
2022-09-26T15:22:35.956Z,2.22
2022-09-26T15:25:23.538Z,2.80
2022-09-26T15:27:54.215Z,2.35
2022-09-26T15:30:33.123Z,2.80
2022-09-26T15:33:04.183Z,2.75
2022-09-26T15:35:32.313Z,2.42
2022-09-26T15:38:09.674Z,2.72
2022-09-26T15:40:36.794Z,2.17
2022-09-26T15:43:09.803Z,2.60
2022-09-26T15:45:46.528Z,2.05
2022-09-26T15:48:19.714Z,2.03
2022-09-26T15:50:56.887Z,3.47
2022-09-26T15:53:39.620Z,2.30
2022-09-26T15:56:10.951Z,2.37
2022-09-26T15:58:37.792Z,2.10
2022-09-26T16:01:05.964Z,2.10
2022-09-26T16:04:13.429Z,2.25
2022-09-26T16:06:52.705Z,2.33
2022-09-26T16:09:35.513Z,2.70
2022-09-26T16:12:16.599Z,2.97
2022-09-26T16:14:49.514Z,2.15
2022-09-26T16:17:37.565Z,2.85
2022-09-26T16:20:25.421Z,1.98
2022-09-26T16:23:04.006Z,1.85
2022-09-26T16:25:35.156Z,2.10
2022-09-26T16:28:20.839Z,2.87
2022-09-26T16:30:59.568Z,1.95
2022-09-26T16:33:40.740Z,2.72
2022-09-26T16:36:26.132Z,2.20
2022-09-26T16:38:58.862Z,2.25
2022-09-26T16:44:35.349Z,2.45
2022-09-26T16:47:06.275Z,2.70
2022-09-26T16:49:45.809Z,2.45
2022-09-26T16:52:31.242Z,2.47
2022-09-26T16:55:00.641Z,1.98
2022-09-26T16:57:31.293Z,2.50
2022-09-26T17:00:20.036Z,2.20
2022-09-26T17:02:47.018Z,1.95
2022-09-26T17:05:20.284Z,1.12
2022-09-26T17:07:48.899Z,1.87
2022-09-26T17:10:17.706Z,1.55
2022-09-26T17:12:49.301Z,2.22
2022-09-26T17:15:27.379Z,2.87
2022-09-26T17:17:55.234Z,1.77
2022-09-26T17:20:22.626Z,2.30
2022-09-26T17:22:50.080Z,1.92
2022-09-26T17:25:18.918Z,1.90
2022-09-26T17:27:49.816Z,1.50
2022-09-26T17:30:19.232Z,2.08
2022-09-26T17:32:51.239Z,1.92
2022-09-26T17:35:29.642Z,2.12
2022-09-26T17:37:56.835Z,1.90
2022-09-26T17:40:29.550Z,2.62
2022-09-26T17:42:58.058Z,2.17
2022-09-26T17:45:32.258Z,1.80
2022-09-26T17:48:14.898Z,2.80
2022-09-26T17:50:42.944Z,2.20
2022-09-26T17:53:20.728Z,2.42
2022-09-26T17:55:48.574Z,2.40
2022-09-26T17:58:16.091Z,2.60
2022-09-26T18:00:43.727Z,2.25
2022-09-26T18:03:21.530Z,2.67
2022-09-26T18:05:48.555Z,2.15
2022-09-26T18:08:27.186Z,2.10
2022-09-26T18:11:18.571Z,1.80
2022-09-26T18:13:55.429Z,1.83
2022-09-26T18:16:23.389Z,1.73
2022-09-26T18:18:51.191Z,1.92
2022-09-26T18:21:19.067Z,1.58
2022-09-26T18:23:55.715Z,2.47
2022-09-26T18:26:42.193Z,1.62
2022-09-26T18:29:13.607Z,1.70
2022-09-26T18:31:41.865Z,1.40
2022-09-26T18:34:19.982Z,1.90
2022-09-26T18:36:48.935Z,1.80
2022-09-26T18:39:16.098Z,1.40
2022-09-26T18:41:45.156Z,1.98
2022-09-26T18:44:20.365Z,1.98
2022-09-26T18:46:49.241Z,1.15
2022-09-26T18:49:17.436Z,1.80
2022-09-26T18:51:45.888Z,2.97
2022-09-26T18:54:17.357Z,1.67
2022-09-26T18:57:03.073Z,2.60
2022-09-26T18:59:31.244Z,1.87
2022-09-26T19:02:00.114Z,2.40
2022-09-26T19:04:27.596Z,1.62
2022-09-26T19:07:06.054Z,2.00
2022-09-26T19:09:35.473Z,2.33
2022-09-26T19:12:03.685Z,1.50
2022-09-26T19:14:31.925Z,2.40
2022-09-26T19:16:59.415Z,1.90
2022-09-26T19:19:28.636Z,2.00
2022-09-26T19:22:03.383Z,1.77
2022-09-26T19:24:35.801Z,1.60
2022-09-26T19:27:11.087Z,1.40
2022-09-26T19:29:43.551Z,1.05
2022-09-26T19:32:22.858Z,1.60
2022-09-26T19:34:56.812Z,1.65
2022-09-26T19:37:23.744Z,1.92
2022-09-26T19:39:50.692Z,1.37
2022-09-26T19:42:17.674Z,1.50
2022-09-26T19:44:44.784Z,1.37
2022-09-26T19:47:17.752Z,1.30
2022-09-26T19:49:50.674Z,1.55
2022-09-26T19:52:20.002Z,1.40
2022-09-26T19:54:47.412Z,1.85
2022-09-26T19:57:16.408Z,2.00
2022-09-26T19:59:43.384Z,2.60
2022-09-26T20:02:33.750Z,1.80
2022-09-26T20:05:00.766Z,1.27
2022-09-26T20:07:27.760Z,1.83
2022-09-26T20:09:55.071Z,2.55
2022-09-26T20:12:22.028Z,2.33
2022-09-26T20:14:48.963Z,2.40
2022-09-26T20:17:24.283Z,1.90
2022-09-26T20:19:57.783Z,2.03
2022-09-26T20:22:26.075Z,2.65
2022-09-26T20:24:56.848Z,2.05
2022-09-26T20:27:27.998Z,2.12
2022-09-26T20:30:14.616Z,2.03
2022-09-26T20:32:42.225Z,1.60
2022-09-26T20:35:15.636Z,1.75
2022-09-26T20:37:43.933Z,1.80
2022-09-26T20:40:19.486Z,2.55
2022-09-26T20:42:50.447Z,1.80
2022-09-26T20:45:22.518Z,2.33
2022-09-26T20:47:49.518Z,2.50
2022-09-26T20:50:19.232Z,2.55
2022-09-26T20:52:46.268Z,2.22
2022-09-26T20:55:18.204Z,2.28
2022-09-26T20:57:45.899Z,2.10
2022-09-26T21:00:17.908Z,1.65
2022-09-26T21:02:47.418Z,1.85
2022-09-26T21:05:24.567Z,1.80
2022-09-26T21:07:52.417Z,1.73
2022-09-26T21:10:31.018Z,2.30
2022-09-26T21:12:59.119Z,2.53
2022-09-26T21:15:30.996Z,1.58
2022-09-26T21:17:58.862Z,1.50
2022-09-26T21:20:31.714Z,1.80
2022-09-26T21:23:01.321Z,2.15
2022-09-26T21:25:32.566Z,1.73
2022-09-26T21:28:03.326Z,2.30
2022-09-26T21:30:30.988Z,1.52
2022-09-26T21:33:00.246Z,1.87
2022-09-26T21:35:32.020Z,1.83
2022-09-26T21:38:01.360Z,1.87
2022-09-26T21:40:32.599Z,2.08
2022-09-26T21:43:06.876Z,2.12
2022-09-26T21:45:34.187Z,2.00
2022-09-26T21:48:01.273Z,2.45
2022-09-26T21:50:29.199Z,1.70
2022-09-26T21:53:09.146Z,1.80
2022-09-26T21:55:39.342Z,1.75
2022-09-26T21:58:13.088Z,2.97
2022-09-26T22:00:40.813Z,1.42
2022-09-26T22:03:07.712Z,1.70
2022-09-26T22:05:34.629Z,1.98
2022-09-26T22:08:01.967Z,1.50
2022-09-26T22:10:29.467Z,1.52
2022-09-26T22:12:56.801Z,3.95
2022-09-26T22:15:23.724Z,2.08
2022-09-26T22:17:51.330Z,3.70
2022-09-26T22:20:18.301Z,1.52
2022-09-26T22:22:45.232Z,2.28
2022-09-26T22:25:12.509Z,2.08
2022-09-26T22:27:39.687Z,2.17
2022-09-26T22:30:07.784Z,2.35
2022-09-26T22:32:34.792Z,1.85
2022-09-26T22:35:01.789Z,2.00
2022-09-26T22:37:28.698Z,1.52
2022-09-26T22:39:55.648Z,2.20
2022-09-26T22:42:22.656Z,1.90
2022-09-26T22:44:49.584Z,1.45
2022-09-26T22:47:16.569Z,1.70
2022-09-26T22:49:43.457Z,1.45
2022-09-26T22:52:10.376Z,1.95
2022-09-26T22:54:37.387Z,1.65
2022-09-26T22:57:04.410Z,1.55
2022-09-26T22:59:31.289Z,1.30
2022-09-26T23:01:58.259Z,1.80
2022-09-26T23:04:45.295Z,1.30
2022-09-26T23:07:12.745Z,1.85
2022-09-26T23:09:40.047Z,1.62
2022-09-26T23:12:07.677Z,1.80
2022-09-26T23:14:34.682Z,1.77
2022-09-26T23:17:01.802Z,1.33
2022-09-26T23:19:28.920Z,1.60
2022-09-26T23:21:55.880Z,1.33
2022-09-26T23:24:22.802Z,1.60
2022-09-26T23:26:49.764Z,1.58
2022-09-26T23:29:16.870Z,1.25
2022-09-26T23:31:43.933Z,1.50
2022-09-26T23:34:11.861Z,1.30
2022-09-26T23:36:38.734Z,1.55
2022-09-26T23:39:05.799Z,1.80
2022-09-26T23:41:32.697Z,1.85
2022-09-26T23:43:59.683Z,1.42
2022-09-26T23:46:26.722Z,1.45
2022-09-26T23:48:54.172Z,2.47
2022-09-26T23:51:21.168Z,1.95
2022-09-26T23:53:48.698Z,1.42
2022-09-26T23:56:16.391Z,1.40
2022-09-26T23:58:43.976Z,3.65
